6R5 weather

Alvin Airpark
Alvin, Texas, United States

Public forecast

Using degrees Fahrenheit for public forecast. Weather courtesy of forecast.io.

METAR (pilot weather report)

Closest report is Pearland Regional Airport, 6.8 nm (12.6 km) NNE. Retrieved 2019/07/19 14:53 UTC (43 minutes ago):

KLVJ 191453Z AUTO 19008KT 10SM FEW026 30/23 A3004 RMK AO2 SLP171 T03000233 51013

TAF (pilot weather forecast)

Closest forecast is Ellington Airport, 13.4 nm (24.8 km) NNE. Retrieved 2019/07/19 12:10 UTC (3 hours ago):

TAF KEFD 191203Z 1912/2018 16009KT 9999 SCT015 BKN030 QNH2995INS BECMG 1915/1916 16010G15KT 9999 FEW030 SCT250 QNH2991INS BECMG 1918/1919 17012G18KT 9000 -SHRA BKN030 QNH2990INS TEMPO 1921/2001 17015G20KT 8000 -TSRA BKN020CB BECMG 2002/2003 18006KT 9999 NSW SCT015 BKN030 QNH2993INS BECMG 2014/2015 16010G18KT 9999 FEW030 QNH2991INS TX34/1922Z TN25/2010Z